Avoca, Minnesota
Current Conditions -  °F | °C
As of 2:13 PM on Monday 26 Jan 2015 (Local Time) from KDVP Reporting Station
Clear Clear  
Wind Chill: 33°   Ceiling: Unl
Heat Index: 42°   Visibility: 10mi
Dew Point: 35°   Wind: 24mph
Humidity: 77%   Direction: 300°WNW
Pressure: 29.84"   Gusts: 30mph
Location:  43.95°N, 95.65°W
Report Text: KDVP 262013Z AUTO 30021G26KT 10SM CLR 06/02 A2984 RMK AO2 T00570019
Loading
Personal Weather Stations






























Interactive Weather Map New forecast layout! Learn more

10-Day Weather Forecast

Advertisements
Track Severe Weather on mobile